sensor_id;sensor_type;location;lat;lon;timestamp;temperature;humidity
65462;DHT22;53236;43.666;18.444;2022-10-16T00:00:45;4.50;99.90
65462;DHT22;53236;43.666;18.444;2022-10-16T00:03:11;4.50;99.90
65462;DHT22;53236;43.666;18.444;2022-10-16T00:05:44;4.50;99.90
65462;DHT22;53236;43.666;18.444;2022-10-16T00:08:11;4.50;99.90
65462;DHT22;53236;43.666;18.444;2022-10-16T00:10:37;4.60;99.90
65462;DHT22;53236;43.666;18.444;2022-10-16T00:13:03;4.30;99.90
65462;DHT22;53236;43.666;18.444;2022-10-16T00:15:30;4.20;99.90
65462;DHT22;53236;43.666;18.444;2022-10-16T00:17:57;4.00;99.90
65462;DHT22;53236;43.666;18.444;2022-10-16T00:20:23;4.00;99.90
65462;DHT22;53236;43.666;18.444;2022-10-16T00:22:49;4.10;99.90
65462;DHT22;53236;43.666;18.444;2022-10-16T00:25:15;4.20;99.90
65462;DHT22;53236;43.666;18.444;2022-10-16T00:27:40;4.20;99.90
65462;DHT22;53236;43.666;18.444;2022-10-16T00:30:06;4.10;99.90
65462;DHT22;53236;43.666;18.444;2022-10-16T00:32:33;4.00;99.90
65462;DHT22;53236;43.666;18.444;2022-10-16T00:34:59;4.00;99.90
65462;DHT22;53236;43.666;18.444;2022-10-16T00:37:24;3.80;99.90
65462;DHT22;53236;43.666;18.444;2022-10-16T00:39:50;3.70;99.90
65462;DHT22;53236;43.666;18.444;2022-10-16T00:42:18;3.60;99.90
65462;DHT22;53236;43.666;18.444;2022-10-16T00:44:53;3.50;99.90
65462;DHT22;53236;43.666;18.444;2022-10-16T00:49:58;3.50;99.90
65462;DHT22;53236;43.666;18.444;2022-10-16T00:52:24;3.50;99.90
65462;DHT22;53236;43.666;18.444;2022-10-16T00:54:50;3.50;99.90
65462;DHT22;53236;43.666;18.444;2022-10-16T00:57:18;3.60;99.90
65462;DHT22;53236;43.666;18.444;2022-10-16T00:59:43;3.70;99.90
65462;DHT22;53236;43.666;18.444;2022-10-16T01:02:13;3.70;99.90
65462;DHT22;53236;43.666;18.444;2022-10-16T01:04:46;3.80;99.90
65462;DHT22;53236;43.666;18.444;2022-10-16T01:10:17;3.70;99.90
65462;DHT22;53236;43.666;18.444;2022-10-16T01:12:56;3.70;99.90
65462;DHT22;53236;43.666;18.444;2022-10-16T01:18:34;3.70;99.90
65462;DHT22;53236;43.666;18.444;2022-10-16T01:21:05;3.60;99.90
65462;DHT22;53236;43.666;18.444;2022-10-16T01:29:11;3.30;99.90
65462;DHT22;53236;43.666;18.444;2022-10-16T01:31:41;3.40;99.90
65462;DHT22;53236;43.666;18.444;2022-10-16T01:34:22;3.30;99.90
65462;DHT22;53236;43.666;18.444;2022-10-16T01:36:57;3.30;99.90
65462;DHT22;53236;43.666;18.444;2022-10-16T01:39:29;3.30;99.90
65462;DHT22;53236;43.666;18.444;2022-10-16T01:42:01;3.40;99.90
65462;DHT22;53236;43.666;18.444;2022-10-16T01:44:35;3.40;99.90
65462;DHT22;53236;43.666;18.444;2022-10-16T01:47:02;3.50;99.90
65462;DHT22;53236;43.666;18.444;2022-10-16T01:49:33;3.30;99.90
65462;DHT22;53236;43.666;18.444;2022-10-16T01:52:00;3.30;99.90
65462;DHT22;53236;43.666;18.444;2022-10-16T01:54:28;3.30;99.90
65462;DHT22;53236;43.666;18.444;2022-10-16T01:56:58;3.20;99.90
65462;DHT22;53236;43.666;18.444;2022-10-16T01:59:26;3.20;99.90
65462;DHT22;53236;43.666;18.444;2022-10-16T02:01:56;3.30;99.90
65462;DHT22;53236;43.666;18.444;2022-10-16T02:05:12;3.10;99.90
65462;DHT22;53236;43.666;18.444;2022-10-16T02:07:13;2.90;99.90
65462;DHT22;53236;43.666;18.444;2022-10-16T02:09:39;3.10;99.90
65462;DHT22;53236;43.666;18.444;2022-10-16T02:12:33;3.10;99.90
65462;DHT22;53236;43.666;18.444;2022-10-16T02:14:58;3.20;99.90
65462;DHT22;53236;43.666;18.444;2022-10-16T02:17:24;3.20;99.90
65462;DHT22;53236;43.666;18.444;2022-10-16T02:19:52;3.20;99.90
65462;DHT22;53236;43.666;18.444;2022-10-16T02:32:53;3.10;99.90
65462;DHT22;53236;43.666;18.444;2022-10-16T02:35:20;3.00;99.90
65462;DHT22;53236;43.666;18.444;2022-10-16T02:37:48;2.90;99.90
65462;DHT22;53236;43.666;18.444;2022-10-16T02:40:15;2.90;99.90
65462;DHT22;53236;43.666;18.444;2022-10-16T02:42:42;3.00;99.90
65462;DHT22;53236;43.666;18.444;2022-10-16T02:45:10;3.00;99.90
65462;DHT22;53236;43.666;18.444;2022-10-16T02:47:36;2.90;99.90
65462;DHT22;53236;43.666;18.444;2022-10-16T02:50:01;2.80;99.90
65462;DHT22;53236;43.666;18.444;2022-10-16T02:52:27;2.80;99.90
65462;DHT22;53236;43.666;18.444;2022-10-16T02:54:52;2.90;99.90
65462;DHT22;53236;43.666;18.444;2022-10-16T02:57:18;2.80;99.90
65462;DHT22;53236;43.666;18.444;2022-10-16T02:59:44;2.80;99.90
65462;DHT22;53236;43.666;18.444;2022-10-16T03:02:11;2.90;99.90
65462;DHT22;53236;43.666;18.444;2022-10-16T03:04:37;2.90;99.90
65462;DHT22;53236;43.666;18.444;2022-10-16T03:07:03;2.90;99.90
65462;DHT22;53236;43.666;18.444;2022-10-16T03:09:28;2.90;99.90
65462;DHT22;53236;43.666;18.444;2022-10-16T03:11:54;3.00;99.90
65462;DHT22;53236;43.666;18.444;2022-10-16T03:14:20;3.00;99.90
65462;DHT22;53236;43.666;18.444;2022-10-16T03:16:45;2.90;99.90
65462;DHT22;53236;43.666;18.444;2022-10-16T03:19:11;3.00;99.90
65462;DHT22;53236;43.666;18.444;2022-10-16T03:21:37;3.00;99.90
65462;DHT22;53236;43.666;18.444;2022-10-16T03:24:03;2.80;99.90
65462;DHT22;53236;43.666;18.444;2022-10-16T03:26:28;2.70;99.90
65462;DHT22;53236;43.666;18.444;2022-10-16T03:28:54;2.70;99.90
65462;DHT22;53236;43.666;18.444;2022-10-16T03:31:20;2.70;99.90
65462;DHT22;53236;43.666;18.444;2022-10-16T03:33:45;2.70;99.90
65462;DHT22;53236;43.666;18.444;2022-10-16T03:36:12;2.70;99.90
65462;DHT22;53236;43.666;18.444;2022-10-16T03:38:38;2.70;99.90
65462;DHT22;53236;43.666;18.444;2022-10-16T03:41:03;2.70;99.90
65462;DHT22;53236;43.666;18.444;2022-10-16T03:43:29;2.70;99.90
65462;DHT22;53236;43.666;18.444;2022-10-16T03:45:55;2.80;99.90
65462;DHT22;53236;43.666;18.444;2022-10-16T03:48:20;2.70;99.90
65462;DHT22;53236;43.666;18.444;2022-10-16T03:50:46;2.70;99.90
65462;DHT22;53236;43.666;18.444;2022-10-16T03:53:14;2.70;99.90
65462;DHT22;53236;43.666;18.444;2022-10-16T03:55:41;2.70;99.90
65462;DHT22;53236;43.666;18.444;2022-10-16T03:58:07;2.60;99.90
65462;DHT22;53236;43.666;18.444;2022-10-16T04:00:33;2.60;99.90
65462;DHT22;53236;43.666;18.444;2022-10-16T04:03:00;2.70;99.90
65462;DHT22;53236;43.666;18.444;2022-10-16T04:05:26;2.70;99.90
65462;DHT22;53236;43.666;18.444;2022-10-16T04:07:51;2.70;99.90
65462;DHT22;53236;43.666;18.444;2022-10-16T04:10:17;2.60;99.90
65462;DHT22;53236;43.666;18.444;2022-10-16T04:12:43;2.50;99.90
65462;DHT22;53236;43.666;18.444;2022-10-16T04:15:09;2.50;99.90
65462;DHT22;53236;43.666;18.444;2022-10-16T04:17:35;2.50;99.90
65462;DHT22;53236;43.666;18.444;2022-10-16T04:20:01;2.50;99.90
65462;DHT22;53236;43.666;18.444;2022-10-16T04:22:26;2.30;99.90
65462;DHT22;53236;43.666;18.444;2022-10-16T04:24:52;2.20;99.90
65462;DHT22;53236;43.666;18.444;2022-10-16T04:27:18;2.20;99.90
65462;DHT22;53236;43.666;18.444;2022-10-16T04:29:43;2.30;99.90
65462;DHT22;53236;43.666;18.444;2022-10-16T04:32:09;2.40;99.90
65462;DHT22;53236;43.666;18.444;2022-10-16T04:34:35;2.40;99.90
65462;DHT22;53236;43.666;18.444;2022-10-16T04:37:01;2.40;99.90
65462;DHT22;53236;43.666;18.444;2022-10-16T04:39:27;2.40;99.90
65462;DHT22;53236;43.666;18.444;2022-10-16T04:41:52;2.40;99.90
65462;DHT22;53236;43.666;18.444;2022-10-16T04:44:18;2.40;99.90
65462;DHT22;53236;43.666;18.444;2022-10-16T04:46:44;2.20;99.90
65462;DHT22;53236;43.666;18.444;2022-10-16T04:49:09;2.20;99.90
65462;DHT22;53236;43.666;18.444;2022-10-16T04:51:35;2.30;99.90
65462;DHT22;53236;43.666;18.444;2022-10-16T04:54:01;2.30;99.90
65462;DHT22;53236;43.666;18.444;2022-10-16T04:56:27;2.40;99.90
65462;DHT22;53236;43.666;18.444;2022-10-16T04:58:52;2.40;99.90
65462;DHT22;53236;43.666;18.444;2022-10-16T05:01:18;2.50;99.90
65462;DHT22;53236;43.666;18.444;2022-10-16T05:03:44;2.40;99.90
65462;DHT22;53236;43.666;18.444;2022-10-16T05:06:09;2.40;99.90
65462;DHT22;53236;43.666;18.444;2022-10-16T05:08:35;2.30;99.90
65462;DHT22;53236;43.666;18.444;2022-10-16T05:11:01;2.30;99.90
65462;DHT22;53236;43.666;18.444;2022-10-16T05:13:27;2.40;99.90
65462;DHT22;53236;43.666;18.444;2022-10-16T05:15:53;2.40;99.90
65462;DHT22;53236;43.666;18.444;2022-10-16T05:18:18;2.50;99.90
65462;DHT22;53236;43.666;18.444;2022-10-16T05:20:44;2.60;99.90
65462;DHT22;53236;43.666;18.444;2022-10-16T05:23:10;2.60;99.90
65462;DHT22;53236;43.666;18.444;2022-10-16T05:25:37;2.60;99.90
65462;DHT22;53236;43.666;18.444;2022-10-16T05:28:03;2.60;99.90
65462;DHT22;53236;43.666;18.444;2022-10-16T05:30:29;2.60;99.90
65462;DHT22;53236;43.666;18.444;2022-10-16T05:32:55;2.70;99.90
65462;DHT22;53236;43.666;18.444;2022-10-16T05:35:20;2.80;99.90
65462;DHT22;53236;43.666;18.444;2022-10-16T05:37:47;2.90;99.90
65462;DHT22;53236;43.666;18.444;2022-10-16T05:40:13;2.80;99.90
65462;DHT22;53236;43.666;18.444;2022-10-16T05:42:40;2.90;99.90
65462;DHT22;53236;43.666;18.444;2022-10-16T05:45:06;2.90;99.90
65462;DHT22;53236;43.666;18.444;2022-10-16T05:47:34;3.60;99.90
65462;DHT22;53236;43.666;18.444;2022-10-16T05:50:00;5.90;99.90
65462;DHT22;53236;43.666;18.444;2022-10-16T05:52:26;8.20;99.90
65462;DHT22;53236;43.666;18.444;2022-10-16T05:54:52;10.70;89.50
65462;DHT22;53236;43.666;18.444;2022-10-16T05:57:18;13.00;71.70
65462;DHT22;53236;43.666;18.444;2022-10-16T05:59:43;15.00;62.10
65462;DHT22;53236;43.666;18.444;2022-10-16T06:02:13;16.60;55.30
65462;DHT22;53236;43.666;18.444;2022-10-16T06:04:39;18.50;51.20
65462;DHT22;53236;43.666;18.444;2022-10-16T06:07:04;19.90;48.10
65462;DHT22;53236;43.666;18.444;2022-10-16T06:09:30;20.50;45.00
65462;DHT22;53236;43.666;18.444;2022-10-16T06:11:56;21.50;43.50
65462;DHT22;53236;43.666;18.444;2022-10-16T06:14:21;22.60;41.10
65462;DHT22;53236;43.666;18.444;2022-10-16T06:16:47;23.60;39.90
65462;DHT22;53236;43.666;18.444;2022-10-16T06:19:13;24.40;38.90
65462;DHT22;53236;43.666;18.444;2022-10-16T06:21:38;25.00;37.30
65462;DHT22;53236;43.666;18.444;2022-10-16T06:24:04;25.70;37.40
65462;DHT22;53236;43.666;18.444;2022-10-16T06:26:30;26.20;36.50
65462;DHT22;53236;43.666;18.444;2022-10-16T06:28:57;26.30;36.40
65462;DHT22;53236;43.666;18.444;2022-10-16T06:31:24;26.60;35.10
65462;DHT22;53236;43.666;18.444;2022-10-16T06:33:53;26.80;34.60
65462;DHT22;53236;43.666;18.444;2022-10-16T06:36:20;26.30;33.80
65462;DHT22;53236;43.666;18.444;2022-10-16T06:38:46;27.00;34.10
65462;DHT22;53236;43.666;18.444;2022-10-16T06:41:13;27.10;34.00
65462;DHT22;53236;43.666;18.444;2022-10-16T06:43:40;28.40;32.90
65462;DHT22;53236;43.666;18.444;2022-10-16T06:46:08;28.70;32.80
65462;DHT22;53236;43.666;18.444;2022-10-16T06:48:35;28.80;32.70
65462;DHT22;53236;43.666;18.444;2022-10-16T06:51:13;29.60;32.10
65462;DHT22;53236;43.666;18.444;2022-10-16T06:53:41;30.10;32.00
65462;DHT22;53236;43.666;18.444;2022-10-16T06:58:37;31.10;32.20
65462;DHT22;53236;43.666;18.444;2022-10-16T07:01:04;31.00;31.60
65462;DHT22;53236;43.666;18.444;2022-10-16T07:03:30;31.00;31.70
65462;DHT22;53236;43.666;18.444;2022-10-16T07:05:56;31.30;32.00
65462;DHT22;53236;43.666;18.444;2022-10-16T07:08:22;31.20;32.60
65462;DHT22;53236;43.666;18.444;2022-10-16T07:10:47;31.60;31.10
65462;DHT22;53236;43.666;18.444;2022-10-16T07:13:13;31.40;31.70
65462;DHT22;53236;43.666;18.444;2022-10-16T07:15:40;31.80;32.10
65462;DHT22;53236;43.666;18.444;2022-10-16T07:18:06;32.00;32.50
65462;DHT22;53236;43.666;18.444;2022-10-16T07:20:32;32.70;31.60
65462;DHT22;53236;43.666;18.444;2022-10-16T07:22:58;33.20;31.50
65462;DHT22;53236;43.666;18.444;2022-10-16T07:25:23;32.90;31.30
65462;DHT22;53236;43.666;18.444;2022-10-16T07:27:49;33.70;32.10
65462;DHT22;53236;43.666;18.444;2022-10-16T07:30:15;34.40;30.70
65462;DHT22;53236;43.666;18.444;2022-10-16T07:32:40;34.40;30.50
65462;DHT22;53236;43.666;18.444;2022-10-16T07:35:06;35.20;30.80
65462;DHT22;53236;43.666;18.444;2022-10-16T07:37:32;35.50;30.40
65462;DHT22;53236;43.666;18.444;2022-10-16T07:39:58;36.60;30.00
65462;DHT22;53236;43.666;18.444;2022-10-16T07:42:23;36.40;29.80
65462;DHT22;53236;43.666;18.444;2022-10-16T07:44:49;36.50;29.70
65462;DHT22;53236;43.666;18.444;2022-10-16T07:47:14;36.80;30.00
65462;DHT22;53236;43.666;18.444;2022-10-16T07:49:40;37.70;29.40
65462;DHT22;53236;43.666;18.444;2022-10-16T07:52:06;38.20;29.40
65462;DHT22;53236;43.666;18.444;2022-10-16T07:54:32;38.30;29.30
65462;DHT22;53236;43.666;18.444;2022-10-16T07:56:57;38.20;29.30
65462;DHT22;53236;43.666;18.444;2022-10-16T07:59:23;38.60;29.10
65462;DHT22;53236;43.666;18.444;2022-10-16T08:01:49;39.20;29.30
65462;DHT22;53236;43.666;18.444;2022-10-16T08:04:15;39.40;28.70
65462;DHT22;53236;43.666;18.444;2022-10-16T08:06:41;40.80;29.00
65462;DHT22;53236;43.666;18.444;2022-10-16T08:09:08;40.40;28.40
65462;DHT22;53236;43.666;18.444;2022-10-16T08:11:34;41.00;28.30
65462;DHT22;53236;43.666;18.444;2022-10-16T08:14:00;40.90;28.40
65462;DHT22;53236;43.666;18.444;2022-10-16T08:16:26;41.70;27.90
65462;DHT22;53236;43.666;18.444;2022-10-16T08:18:52;41.90;27.90
65462;DHT22;53236;43.666;18.444;2022-10-16T08:21:20;42.20;27.70
65462;DHT22;53236;43.666;18.444;2022-10-16T08:23:46;42.50;27.90
65462;DHT22;53236;43.666;18.444;2022-10-16T08:26:12;42.60;27.50
65462;DHT22;53236;43.666;18.444;2022-10-16T08:28:38;42.80;27.50
65462;DHT22;53236;43.666;18.444;2022-10-16T08:31:09;42.80;27.50
65462;DHT22;53236;43.666;18.444;2022-10-16T08:33:36;42.50;27.40
65462;DHT22;53236;43.666;18.444;2022-10-16T08:36:04;42.80;27.40
65462;DHT22;53236;43.666;18.444;2022-10-16T08:38:31;43.30;27.40
65462;DHT22;53236;43.666;18.444;2022-10-16T08:43:59;43.30;27.40
65462;DHT22;53236;43.666;18.444;2022-10-16T08:49:19;43.70;27.00
65462;DHT22;53236;43.666;18.444;2022-10-16T08:51:45;44.10;27.20
65462;DHT22;53236;43.666;18.444;2022-10-16T08:54:32;44.40;26.30
65462;DHT22;53236;43.666;18.444;2022-10-16T08:57:16;43.70;26.30
65462;DHT22;53236;43.666;18.444;2022-10-16T08:59:42;44.20;26.20
65462;DHT22;53236;43.666;18.444;2022-10-16T09:02:37;44.20;26.50
65462;DHT22;53236;43.666;18.444;2022-10-16T09:16:59;44.80;26.30
65462;DHT22;53236;43.666;18.444;2022-10-16T09:19:37;44.00;26.10
65462;DHT22;53236;43.666;18.444;2022-10-16T09:22:15;42.30;26.20
65462;DHT22;53236;43.666;18.444;2022-10-16T09:24:41;42.80;26.70
65462;DHT22;53236;43.666;18.444;2022-10-16T09:27:11;42.80;26.80
65462;DHT22;53236;43.666;18.444;2022-10-16T09:29:38;42.60;27.70
65462;DHT22;53236;43.666;18.444;2022-10-16T09:32:18;42.00;27.10
65462;DHT22;53236;43.666;18.444;2022-10-16T09:34:50;42.20;27.50
65462;DHT22;53236;43.666;18.444;2022-10-16T09:37:19;41.30;27.50
65462;DHT22;53236;43.666;18.444;2022-10-16T09:39:47;41.70;27.50
65462;DHT22;53236;43.666;18.444;2022-10-16T09:42:33;41.70;27.40
65462;DHT22;53236;43.666;18.444;2022-10-16T09:45:00;40.70;27.80
65462;DHT22;53236;43.666;18.444;2022-10-16T09:47:28;40.50;28.30
65462;DHT22;53236;43.666;18.444;2022-10-16T09:49:59;39.90;27.80
65462;DHT22;53236;43.666;18.444;2022-10-16T09:52:27;39.30;28.10
65462;DHT22;53236;43.666;18.444;2022-10-16T09:54:58;39.30;28.30
65462;DHT22;53236;43.666;18.444;2022-10-16T09:57:25;39.00;28.90
65462;DHT22;53236;43.666;18.444;2022-10-16T09:59:57;39.00;28.80
65462;DHT22;53236;43.666;18.444;2022-10-16T10:02:37;38.80;28.80
65462;DHT22;53236;43.666;18.444;2022-10-16T10:05:24;39.00;29.10
65462;DHT22;53236;43.666;18.444;2022-10-16T10:08:01;39.40;28.90
65462;DHT22;53236;43.666;18.444;2022-10-16T10:10:33;38.70;29.10
65462;DHT22;53236;43.666;18.444;2022-10-16T10:13:02;38.10;29.00
65462;DHT22;53236;43.666;18.444;2022-10-16T10:15:35;38.00;29.50
65462;DHT22;53236;43.666;18.444;2022-10-16T10:18:01;37.80;30.00
65462;DHT22;53236;43.666;18.444;2022-10-16T10:20:29;37.00;29.80
65462;DHT22;53236;43.666;18.444;2022-10-16T10:22:58;35.10;30.80
65462;DHT22;53236;43.666;18.444;2022-10-16T10:39:58;27.20;39.30
65462;DHT22;53236;43.666;18.444;2022-10-16T10:48:24;25.80;41.20
65462;DHT22;53236;43.666;18.444;2022-10-16T10:51:03;25.40;41.90
65462;DHT22;53236;43.666;18.444;2022-10-16T10:54:05;25.20;42.30
65462;DHT22;53236;43.666;18.444;2022-10-16T10:56:50;24.70;43.00
65462;DHT22;53236;43.666;18.444;2022-10-16T10:59:36;24.20;44.00
65462;DHT22;53236;43.666;18.444;2022-10-16T11:07:41;23.50;46.10
65462;DHT22;53236;43.666;18.444;2022-10-16T11:10:15;23.50;46.90
65462;DHT22;53236;43.666;18.444;2022-10-16T11:12:47;23.30;47.40
65462;DHT22;53236;43.666;18.444;2022-10-16T11:15:30;23.20;47.50
65462;DHT22;53236;43.666;18.444;2022-10-16T11:18:11;23.20;47.40
65462;DHT22;53236;43.666;18.444;2022-10-16T11:23:45;22.70;48.60
65462;DHT22;53236;43.666;18.444;2022-10-16T11:26:21;22.70;48.60
65462;DHT22;53236;43.666;18.444;2022-10-16T11:28:51;22.60;48.20
65462;DHT22;53236;43.666;18.444;2022-10-16T11:31:41;22.40;48.50
65462;DHT22;53236;43.666;18.444;2022-10-16T11:37:10;22.20;48.30
65462;DHT22;53236;43.666;18.444;2022-10-16T11:39:38;22.30;49.40
65462;DHT22;53236;43.666;18.444;2022-10-16T11:45:15;22.40;50.00
65462;DHT22;53236;43.666;18.444;2022-10-16T11:47:47;22.40;48.30
65462;DHT22;53236;43.666;18.444;2022-10-16T11:55:44;22.50;49.40
65462;DHT22;53236;43.666;18.444;2022-10-16T11:58:25;22.50;47.90
65462;DHT22;53236;43.666;18.444;2022-10-16T12:06:51;22.30;47.00
65462;DHT22;53236;43.666;18.444;2022-10-16T12:09:31;22.30;47.90
65462;DHT22;53236;43.666;18.444;2022-10-16T12:11:58;22.30;48.70
65462;DHT22;53236;43.666;18.444;2022-10-16T12:14:38;22.10;49.70
65462;DHT22;53236;43.666;18.444;2022-10-16T12:20:00;22.00;50.40
65462;DHT22;53236;43.666;18.444;2022-10-16T12:22:29;22.00;49.70
65462;DHT22;53236;43.666;18.444;2022-10-16T12:24:56;22.00;49.90
65462;DHT22;53236;43.666;18.444;2022-10-16T12:27:29;21.90;48.40
65462;DHT22;53236;43.666;18.444;2022-10-16T12:30:04;22.00;48.60
65462;DHT22;53236;43.666;18.444;2022-10-16T12:32:36;22.00;48.70
65462;DHT22;53236;43.666;18.444;2022-10-16T12:35:05;22.00;50.20
65462;DHT22;53236;43.666;18.444;2022-10-16T12:37:34;21.90;50.50
65462;DHT22;53236;43.666;18.444;2022-10-16T12:40:13;21.70;50.40
65462;DHT22;53236;43.666;18.444;2022-10-16T12:42:40;21.50;50.00
65462;DHT22;53236;43.666;18.444;2022-10-16T12:45:34;21.40;50.00
65462;DHT22;53236;43.666;18.444;2022-10-16T12:48:02;21.50;50.60
65462;DHT22;53236;43.666;18.444;2022-10-16T12:50:36;21.50;50.50
65462;DHT22;53236;43.666;18.444;2022-10-16T12:53:16;21.50;50.50
65462;DHT22;53236;43.666;18.444;2022-10-16T13:00:57;21.50;50.50
65462;DHT22;53236;43.666;18.444;2022-10-16T13:03:43;21.50;51.50
65462;DHT22;53236;43.666;18.444;2022-10-16T13:17:35;21.70;50.50
65462;DHT22;53236;43.666;18.444;2022-10-16T13:20:11;21.80;49.30
65462;DHT22;53236;43.666;18.444;2022-10-16T13:30:23;22.20;50.20
65462;DHT22;53236;43.666;18.444;2022-10-16T13:32:55;22.20;49.80
65462;DHT22;53236;43.666;18.444;2022-10-16T13:35:26;22.10;49.30
65462;DHT22;53236;43.666;18.444;2022-10-16T13:38:13;21.90;49.60
65462;DHT22;53236;43.666;18.444;2022-10-16T13:40:58;21.90;50.50
65462;DHT22;53236;43.666;18.444;2022-10-16T13:43:45;21.80;50.60
65462;DHT22;53236;43.666;18.444;2022-10-16T13:46:21;21.80;50.70
65462;DHT22;53236;43.666;18.444;2022-10-16T13:48:57;21.80;50.20
65462;DHT22;53236;43.666;18.444;2022-10-16T13:51:23;21.80;51.50
65462;DHT22;53236;43.666;18.444;2022-10-16T13:53:56;21.80;49.90
65462;DHT22;53236;43.666;18.444;2022-10-16T13:56:27;21.70;51.10
65462;DHT22;53236;43.666;18.444;2022-10-16T13:59:04;21.50;51.70
65462;DHT22;53236;43.666;18.444;2022-10-16T14:01:40;21.40;52.10
65462;DHT22;53236;43.666;18.444;2022-10-16T14:04:11;21.30;52.20
65462;DHT22;53236;43.666;18.444;2022-10-16T14:06:42;21.20;52.50
65462;DHT22;53236;43.666;18.444;2022-10-16T14:09:25;21.10;53.60
65462;DHT22;53236;43.666;18.444;2022-10-16T14:11:57;21.00;53.00
65462;DHT22;53236;43.666;18.444;2022-10-16T14:14:24;20.90;53.30
65462;DHT22;53236;43.666;18.444;2022-10-16T14:16:50;20.70;54.00
65462;DHT22;53236;43.666;18.444;2022-10-16T14:19:27;20.70;54.50
65462;DHT22;53236;43.666;18.444;2022-10-16T14:21:54;20.60;54.40
65462;DHT22;53236;43.666;18.444;2022-10-16T14:24:40;20.50;54.60
65462;DHT22;53236;43.666;18.444;2022-10-16T14:27:34;20.40;55.10
65462;DHT22;53236;43.666;18.444;2022-10-16T14:30:21;20.30;54.60
65462;DHT22;53236;43.666;18.444;2022-10-16T14:33:04;20.30;54.80
65462;DHT22;53236;43.666;18.444;2022-10-16T14:35:39;20.30;55.10
65462;DHT22;53236;43.666;18.444;2022-10-16T14:38:06;20.30;55.50
65462;DHT22;53236;43.666;18.444;2022-10-16T14:40:47;20.20;54.80
65462;DHT22;53236;43.666;18.444;2022-10-16T14:45:58;20.20;55.30
65462;DHT22;53236;43.666;18.444;2022-10-16T14:48:24;20.30;54.70
65462;DHT22;53236;43.666;18.444;2022-10-16T14:50:50;20.10;55.10
65462;DHT22;53236;43.666;18.444;2022-10-16T14:53:16;20.20;55.30
65462;DHT22;53236;43.666;18.444;2022-10-16T14:55:42;20.10;54.90
65462;DHT22;53236;43.666;18.444;2022-10-16T14:58:26;20.10;55.20
65462;DHT22;53236;43.666;18.444;2022-10-16T15:00:52;20.00;55.00
65462;DHT22;53236;43.666;18.444;2022-10-16T15:03:17;20.10;55.10
65462;DHT22;53236;43.666;18.444;2022-10-16T15:05:43;19.90;54.40
65462;DHT22;53236;43.666;18.444;2022-10-16T15:08:09;19.80;55.60
65462;DHT22;53236;43.666;18.444;2022-10-16T15:10:42;19.80;55.80
65462;DHT22;53236;43.666;18.444;2022-10-16T15:13:11;19.70;55.80
65462;DHT22;53236;43.666;18.444;2022-10-16T15:15:44;19.70;56.40
65462;DHT22;53236;43.666;18.444;2022-10-16T15:18:10;19.50;56.80
65462;DHT22;53236;43.666;18.444;2022-10-16T15:20:37;19.50;57.40
65462;DHT22;53236;43.666;18.444;2022-10-16T15:23:17;19.40;57.40
65462;DHT22;53236;43.666;18.444;2022-10-16T15:28:11;19.10;58.70
65462;DHT22;53236;43.666;18.444;2022-10-16T15:30:37;19.10;59.60
65462;DHT22;53236;43.666;18.444;2022-10-16T15:33:04;18.90;61.60
65462;DHT22;53236;43.666;18.444;2022-10-16T15:35:30;18.70;62.30
65462;DHT22;53236;43.666;18.444;2022-10-16T15:37:57;18.50;62.50
65462;DHT22;53236;43.666;18.444;2022-10-16T15:40:23;18.40;62.90
65462;DHT22;53236;43.666;18.444;2022-10-16T15:42:49;18.20;63.80
65462;DHT22;53236;43.666;18.444;2022-10-16T15:45:15;17.90;64.60
65462;DHT22;53236;43.666;18.444;2022-10-16T15:47:42;17.70;65.70
65462;DHT22;53236;43.666;18.444;2022-10-16T15:50:10;17.50;66.10
65462;DHT22;53236;43.666;18.444;2022-10-16T15:52:37;17.40;66.80
65462;DHT22;53236;43.666;18.444;2022-10-16T15:55:07;17.30;67.50
65462;DHT22;53236;43.666;18.444;2022-10-16T15:57:33;17.10;68.10
65462;DHT22;53236;43.666;18.444;2022-10-16T15:59:59;16.90;68.60
65462;DHT22;53236;43.666;18.444;2022-10-16T16:02:25;16.80;69.00
65462;DHT22;53236;43.666;18.444;2022-10-16T16:04:50;16.60;70.80
65462;DHT22;53236;43.666;18.444;2022-10-16T16:07:16;16.40;71.70
65462;DHT22;53236;43.666;18.444;2022-10-16T16:09:42;16.20;73.50
65462;DHT22;53236;43.666;18.444;2022-10-16T16:12:09;16.10;75.50
65462;DHT22;53236;43.666;18.444;2022-10-16T16:14:34;16.00;77.80
65462;DHT22;53236;43.666;18.444;2022-10-16T16:17:00;15.90;79.90
65462;DHT22;53236;43.666;18.444;2022-10-16T16:19:27;15.70;82.90
65462;DHT22;53236;43.666;18.444;2022-10-16T16:21:53;15.60;85.40
65462;DHT22;53236;43.666;18.444;2022-10-16T16:24:19;15.40;89.40
65462;DHT22;53236;43.666;18.444;2022-10-16T16:26:45;15.30;90.80
65462;DHT22;53236;43.666;18.444;2022-10-16T16:29:12;15.40;91.30
65462;DHT22;53236;43.666;18.444;2022-10-16T16:31:39;15.40;92.10
65462;DHT22;53236;43.666;18.444;2022-10-16T16:34:05;15.20;92.90
65462;DHT22;53236;43.666;18.444;2022-10-16T16:36:32;15.00;94.40
65462;DHT22;53236;43.666;18.444;2022-10-16T16:38:58;15.00;95.20
65462;DHT22;53236;43.666;18.444;2022-10-16T16:41:26;14.80;96.40
65462;DHT22;53236;43.666;18.444;2022-10-16T16:43:53;14.70;97.00
65462;DHT22;53236;43.666;18.444;2022-10-16T16:46:19;14.60;98.00
65462;DHT22;53236;43.666;18.444;2022-10-16T16:48:45;14.60;98.20
65462;DHT22;53236;43.666;18.444;2022-10-16T16:51:14;14.40;98.60
65462;DHT22;53236;43.666;18.444;2022-10-16T16:53:45;14.30;99.20
65462;DHT22;53236;43.666;18.444;2022-10-16T16:56:11;14.30;99.10
65462;DHT22;53236;43.666;18.444;2022-10-16T16:58:38;14.30;99.10
65462;DHT22;53236;43.666;18.444;2022-10-16T17:01:04;14.30;99.30
65462;DHT22;53236;43.666;18.444;2022-10-16T17:03:31;14.20;99.20
65462;DHT22;53236;43.666;18.444;2022-10-16T17:06:01;14.00;99.80
65462;DHT22;53236;43.666;18.444;2022-10-16T17:08:27;13.90;99.90
65462;DHT22;53236;43.666;18.444;2022-10-16T17:10:54;13.90;99.90
65462;DHT22;53236;43.666;18.444;2022-10-16T17:13:34;13.70;99.90
65462;DHT22;53236;43.666;18.444;2022-10-16T17:16:03;13.60;99.90
65462;DHT22;53236;43.666;18.444;2022-10-16T17:18:29;13.60;99.90
65462;DHT22;53236;43.666;18.444;2022-10-16T17:20:59;13.50;99.90
65462;DHT22;53236;43.666;18.444;2022-10-16T17:23:24;13.50;99.90
65462;DHT22;53236;43.666;18.444;2022-10-16T17:25:50;13.30;99.90
65462;DHT22;53236;43.666;18.444;2022-10-16T17:28:15;13.10;99.90
65462;DHT22;53236;43.666;18.444;2022-10-16T17:30:42;13.00;99.90
65462;DHT22;53236;43.666;18.444;2022-10-16T17:33:09;12.80;99.90
65462;DHT22;53236;43.666;18.444;2022-10-16T17:35:40;12.90;99.90
65462;DHT22;53236;43.666;18.444;2022-10-16T17:38:07;12.70;99.90